Scroll down
FLIGHT INFORMATION
American Airlines

AAL2822

At Arrival Gate

KORD
 RJAA
DATE: 2020-12-13
GATE: K16
GATE DEPARTURE: 14:09
TAKEOFF: 14:20
DATE: 2020-12-14
GATE: G8
LANDING: 02:34
GATE ARRIVAL: 02:43
FLIGHT DATA
Crew: 
Speed: 
518 kts
Altitude: 
38,019 ft
Stage Length: 
5,439.3 nm
Block Time: 
12.5 hrs
Flight Time: 
12.2 hrs
Fuel Used: 
215,578 lb
Cleared Route: KORD PMPKN NEATO DLLAN RONIC BAE BGOSH DLH 5096N 52N00 53N10 ELKIE 55N30 57N40 59N50 60N60 NOLTI NAYLD NULUK ONEIL OPAKE OLCOT OPHET OGDEN OMOTO OPULO ONEMU OATIS VESET UGTAN NOGIX OLDIV LESPO SUPOK SOFIA AA458 AA459 AA460 AA461 BELKS PEAKS TYLER GIINA RW34L
TRACK DATA
50,000 ft 1,000 kts
AIRCRAFT INFO AND CUMULATIVE STATS
Aircraft Type: 
B77W
Registration: 
SELCAL: 
CPDJ
MSN/LN: 
31549 / 1257
Operator: 
Total Flights: 
6
Total Block Time: 
48.7 hrs
Total Flight Time: 
46.6 hrs
Total Fuel Used: 
842,296 lb
DATALINK LOG | Newest first | Current as of: 2022-05-16 07:58:13
LABEL SEQUENCE CONTENT Dn/Up
QD450902:43 15.7▼ Dn
QC360002:34▼ Dn
2U1744RJAA 140130Z 02012KT 350V050 9999 FEW030 11/03 Q1007 NOSIG▲ Up
2S1742RJAA▼ Dn
2U1047RJAA 140130Z 02012KT 350V050 9999 FEW030 11/03 Q1007 NOSIG▲ Up
2S1136RJAA▼ Dn
2U2620RJAA 140100Z 33013KT 9999 FEW030 11/03 Q1007 NOSIG▲ Up
2S2754RJAA▼ Dn
5Z275414 DEC 20 01:26:14z / FLT DECK GOOD / ACF POS GOOD / GRND SERVICES GOOD / MAINT GOOD▼ Dn
GA2763GATE G8▲ Up
GR2753RJAA 02:32 MAAS 00 YP/UM 00/01 WCHR/S/C 02/03/04 HI-VAL NO DIPL/VIP YES▼ Dn
DM792652 ATIS RJAA A▼ Dn
QB215814:20▼ Dn
QA104714:09 231.4▼ Dn
5U0030RJAA 131752Z 22008KT 9999 FEW030 07/04 Q1008▲ Up
2U5924KORD 131251Z 30004KT 10SM FEW011 BKN034 BKN200 M03/M05 A3017 RMK AO2 SLP224 T10281050 $▲ Up
5S0037RJAA▼ Dn
2S0037KORD▼ Dn
A35744CLEARED TO RJAA VIA PMPKN NEATO DLLAN RONIC BAE J89 DLH 5000N/09600W 5200N/10000W 5300N/11000W ELKIE 5500N/13000W 5700N/14000W 5900N/15000W 6000N/16000W NOLTI R220 NULUK ONEIL R580 OPAKE R580 OGDEN R580 OPULO R580 OATIS Y802 OLDIV Y809 LESPO Y809 SUPOK supokt. SQUAWK 3173.▲ Up
2U5744RJAA 131330Z 07003KT 020V110 9999 FEW020 07/04 Q1008 NOSIG▲ Up
2U5741KORD 131251Z 30004KT 10SM FEW011 BKN034 BKN200 M03/M05 A3017 RMK AO2 SLP224 T10281050 $▲ Up
2S5741RJAA▼ Dn
2S5741KORD▼ Dn
Q05633[LINK ACK]▲ Up
Q05633[LINK TEST]▼ Dn


AIRCRAFT HISTORY
FLIGHT DATE FLIGHT NO. ORIGIN DESTINATION CLEARED ROUTE BLOCK TIME FLIGHT TIME FUEL USED PILOT
2021-09-26AAL926KDFW RKSI KDFW SPERA JGIRL CORTS BIGGD CMORE BLECO ZEMMA ICT LNK FAR HML ZOMTA YWG 55N00 61N10 64N20 67N30 ADREW LISKI BABAD PEMID GONAM ABILA RULOD ADALU OSKON GUBAD TINID IDNOR RIPTA BANOT RELDI DIREB SOPIN NILOT GITAK GIRUD LUSAK KUNON LUPAT OBUTA IBOLI OLGIR SUKOP LAPNI BESPA OGNIT PENOK ODEKA MAGIT JMU IGADO HRB PABKI PAGDO ISBOP NULRA LJB LEMOT NUBKI BIDIB ISKEM TOSID NODAL CHI SANKO OBDIS DONVO AGAVO RILRO GONAV BODOL REBIT COWAY PINGO CW001 CW002 CW003 CW004 CW005 PAMBI RW34R14.3 hrs13.9 hrs270,304 lbRandall Smith
2021-03-24AAL8439RJAA KDFW RJAA GULBO TASID NOLAX IDLAN ADNAP ADGOR AGEDI PASRO POWAL PLADO PINSO PINTT PTZGR CHUUK ODK CJAYY GRIZZ HMPTN KATCH FINGS YAZNB CFPXC TOU OLM SUMMA WANTA JELTI HOVEL VELUY BYI PIMIE NAGNE BONGO PITMN TAYLR GOSIP KENTO PNH TURKI KDFW11.2 hrs10.8 hrs187,718 lbRyan Syferd
2020-12-13AAL2822KORD RJAA KORD PMPKN NEATO DLLAN RONIC BAE BGOSH DLH 5096N 52N00 53N10 ELKIE 55N30 57N40 59N50 60N60 NOLTI NAYLD NULUK ONEIL OPAKE OLCOT OPHET OGDEN OMOTO OPULO ONEMU OATIS VESET UGTAN NOGIX OLDIV LESPO SUPOK SOFIA AA458 AA459 AA460 AA461 BELKS PEAKS TYLER GIINA RW34L12.5 hrs12.2 hrs215,578 lbGeorge
2020-12-13AAL1163KLAX KORD KLAX HIIPR ADORE SHAEF PEVEE HOLTZ DOTSS EYEDL HOMER CLEEE PKE LANCY DRK KEYKE GUP CIM LBL VARNR ICT ROKNE DOSOA BUM SCAWT ELSTO WELTS MCDEE CASHN VINCA MAROC TRICH TRTLL HIHRY RINNO JORJO MONKZ TONIE HAZIL RW28C3.5 hrs3.1 hrs57,076 lbGeorge
2020-12-12AAL254PHOG KLAX PHOG CLUTS CEBEN CIVIT FLEXX GITLE GALIP AUDIA SNAXX SERCO HUULL GNZZO RYDRR KEVVI BAYST JUUSE CLIFY DAHJR GADDO HUNDA RW25L5 hrs4.6 hrs79,625 lbGeorge
2020-12-05AAL520KDFW KPHX 2.2 hrs1.9 hrs31,994 lbGeorge